Time;durP1;ratioP1;P1;durP2;ratioP2;P2;SDS_P1;SDS_P2;PMS_P1;PMS_P2;Temp;Humidity;BMP_temperature;BMP_pressure;BME280_temperature;BME280_humidity;BME280_pressure;Samples;Min_cycle;Max_cycle;Signal;HPM_P1;HPM_P2
2023/01/03 00:01:56;;;;;;;2.83;1.73;;;10.40;99.90;;;;;;4958008;29;20498;-81
2023/01/03 00:04:23;;;;;;;3.60;1.50;;;10.30;99.90;;;;;;4958135;28;20974;-79
2023/01/03 00:06:51;;;;;;;4.83;2.00;;;10.20;99.90;;;;;;4955246;28;20482;-84
2023/01/03 00:09:23;;;;;;;3.53;1.50;;;10.20;99.90;;;;;;4956846;29;20470;-80
2023/01/03 00:14:40;;;;;;;3.40;1.80;;;10.50;99.90;;;;;;4960966;29;20503;-80
2023/01/03 00:17:08;;;;;;;1.90;1.73;;;10.10;99.90;;;;;;4960981;29;20542;-80
2023/01/03 00:19:37;;;;;;;2.20;1.87;;;10.20;99.90;;;;;;4960240;29;20983;-80
2023/01/03 00:22:05;;;;;;;4.03;2.00;;;10.00;99.90;;;;;;4961769;29;20467;-79
2023/01/03 00:24:32;;;;;;;2.60;1.80;;;9.90;99.90;;;;;;4961416;28;20538;-79
2023/01/03 00:27:01;;;;;;;3.50;1.70;;;10.00;99.90;;;;;;4964483;29;20451;-80
2023/01/03 00:29:28;;;;;;;2.40;1.80;;;9.60;99.90;;;;;;4963968;29;20443;-81
2023/01/03 00:31:55;;;;;;;4.73;2.47;;;8.90;99.90;;;;;;4960747;29;20874;-81
2023/01/03 00:34:22;;;;;;;3.43;2.20;;;9.80;99.90;;;;;;4951287;29;20562;-83
2023/01/03 00:36:49;;;;;;;3.70;2.30;;;9.40;99.90;;;;;;4956322;29;20471;-86
2023/01/03 00:39:23;;;;;;;3.20;2.30;;;9.70;99.90;;;;;;4953893;29;21003;-81
2023/01/03 00:41:50;;;;;;;6.00;2.50;;;9.70;99.90;;;;;;4957553;29;20458;-82
2023/01/03 00:44:19;;;;;;;2.77;2.30;;;9.60;99.90;;;;;;4961942;29;20455;-82
2023/01/03 00:46:46;;;;;;;2.57;2.37;;;9.50;99.90;;;;;;4955201;29;20439;-84
2023/01/03 00:49:13;;;;;;;4.50;2.43;;;9.40;99.90;;;;;;4955946;29;20538;-83
2023/01/03 00:51:41;;;;;;;2.83;2.40;;;9.40;99.90;;;;;;4956919;29;20955;-82
2023/01/03 00:54:10;;;;;;;4.80;3.00;;;9.30;99.90;;;;;;4957664;29;20896;-84
2023/01/03 00:56:38;;;;;;;4.43;2.40;;;9.30;99.90;;;;;;4956684;29;21034;-84
2023/01/03 00:59:07;;;;;;;3.17;2.13;;;9.20;99.90;;;;;;4959817;28;20534;-86
2023/01/03 01:01:38;;;;;;;6.10;2.67;;;10.50;99.90;;;;;;4961540;29;20455;-80
2023/01/03 01:04:10;;;;;;;8.70;2.40;;;9.80;99.90;;;;;;4963615;29;20454;-81
2023/01/03 01:59:35;;;;;;;1.83;1.00;;;8.00;99.90;;;;;;513590;26;20841;-80
2023/01/03 02:02:03;;;;;;;1.23;1.00;;;8.20;99.90;;;;;;4971405;28;20495;-90
2023/01/03 02:04:34;;;;;;;1.73;1.40;;;8.90;99.90;;;;;;4971514;29;20467;-91
2023/01/03 02:07:07;;;;;;;1.50;1.30;;;8.00;99.90;;;;;;4970964;29;20982;-86
2023/01/03 02:09:34;;;;;;;1.40;1.30;;;8.10;99.90;;;;;;4968687;29;20611;-90
2023/01/03 02:15:06;;;;;;;1.20;1.10;;;8.00;99.90;;;;;;4959575;29;20466;-73
2023/01/03 02:17:45;;;;;;;1.13;0.90;;;8.00;99.90;;;;;;4951058;29;20454;-79
2023/01/03 02:20:25;;;;;;;1.80;1.00;;;8.00;99.90;;;;;;4950725;29;20544;-74
2023/01/03 02:23:28;;;;;;;4.80;2.83;;;8.00;99.90;;;;;;4949992;29;20635;-75
2023/01/03 02:26:24;;;;;;;42.97;21.87;;;8.00;99.90;;;;;;4950885;29;20489;-74
2023/01/03 02:29:18;;;;;;;5.10;2.80;;;8.00;99.90;;;;;;4955549;29;20451;-82
2023/01/03 02:32:05;;;;;;;3.30;2.07;;;7.90;99.90;;;;;;4954619;29;20446;-78
2023/01/03 02:34:40;;;;;;;3.17;1.60;;;7.90;99.90;;;;;;4952220;29;20439;-76
2023/01/03 02:37:17;;;;;;;1.70;1.40;;;7.90;99.90;;;;;;4952093;29;20485;-74
2023/01/03 02:39:48;;;;;;;1.00;0.90;;;7.90;99.90;;;;;;4951534;29;21247;-81
2023/01/03 02:45:11;;;;;;;1.73;0.83;;;7.60;99.90;;;;;;4950622;29;20961;-77
2023/01/03 02:47:48;;;;;;;1.20;0.80;;;7.70;99.90;;;;;;4950249;28;20514;-81
2023/01/03 02:50:16;;;;;;;0.90;0.77;;;7.60;99.90;;;;;;4950317;29;20915;-75
2023/01/03 02:52:45;;;;;;;1.00;0.83;;;7.60;99.90;;;;;;4950425;29;20463;-76
2023/01/03 02:55:25;;;;;;;1.10;0.90;;;7.60;99.90;;;;;;4950011;28;20440;-76
2023/01/03 02:58:00;;;;;;;1.10;1.00;;;7.60;99.90;;;;;;4950316;29;20521;-82
2023/01/03 03:00:30;;;;;;;1.20;1.10;;;7.50;99.90;;;;;;4949920;28;21060;-82
2023/01/03 03:03:05;;;;;;;1.13;1.00;;;7.50;99.90;;;;;;4950322;29;20471;-78
2023/01/03 03:05:51;;;;;;;1.10;0.90;;;7.40;99.90;;;;;;4950578;29;20553;-81
2023/01/03 03:08:18;;;;;;;1.00;0.90;;;7.50;99.90;;;;;;4950246;29;20439;-74
2023/01/03 03:13:38;;;;;;;3.90;1.40;;;7.40;99.90;;;;;;4949309;28;20995;-74
2023/01/03 03:16:10;;;;;;;1.10;1.00;;;7.50;99.90;;;;;;4950187;29;20461;-74
2023/01/03 03:18:59;;;;;;;1.03;0.93;;;7.70;99.90;;;;;;4950208;29;20451;-75
2023/01/03 03:32:41;;;;;;;1.20;1.00;;;7.40;99.90;;;;;;4930623;29;21088;-74
2023/01/03 03:35:14;;;;;;;2.43;1.50;;;7.20;99.90;;;;;;4930641;29;20964;-75
2023/01/03 03:37:42;;;;;;;1.77;1.43;;;7.40;99.90;;;;;;4931331;29;20495;-75
2023/01/03 03:46:01;;;;;;;1.20;1.07;;;7.40;99.90;;;;;;4937948;29;20469;-74
2023/01/03 03:49:36;;;;;;;1.40;1.30;;;7.40;99.90;;;;;;4953666;29;20459;-74
2023/01/03 03:51:25;;;;;;;1.63;1.27;;;7.50;99.90;;;;;;4952894;29;20451;-74
2023/01/03 03:53:54;;;;;;;1.93;1.10;;;7.40;99.90;;;;;;4952926;29;20447;-74
2023/01/03 03:56:27;;;;;;;1.00;0.90;;;7.50;99.90;;;;;;4953057;29;20517;-74
2023/01/03 03:58:59;;;;;;;1.30;1.20;;;7.40;99.90;;;;;;4952787;29;20455;-74
2023/01/03 04:01:27;;;;;;;1.67;1.10;;;7.40;99.90;;;;;;4952813;28;20479;-74
2023/01/03 04:03:58;;;;;;;1.60;1.20;;;7.40;99.90;;;;;;4952252;28;20467;-74
2023/01/03 04:06:30;;;;;;;2.00;1.20;;;7.50;99.90;;;;;;4952676;29;20947;-74
2023/01/03 04:08:58;;;;;;;1.07;0.97;;;7.40;99.90;;;;;;4952712;29;20973;-74
2023/01/03 04:11:26;;;;;;;1.33;1.23;;;7.40;99.90;;;;;;4952723;29;20547;-74
2023/01/03 04:13:53;;;;;;;1.23;1.10;;;7.70;99.90;;;;;;4952708;29;20826;-74
2023/01/03 04:16:20;;;;;;;1.20;1.10;;;7.80;99.90;;;;;;4952433;29;20449;-74
2023/01/03 04:18:55;;;;;;;1.67;1.20;;;7.70;99.90;;;;;;4952672;29;20859;-74
2023/01/03 04:21:22;;;;;;;2.20;1.50;;;7.70;99.90;;;;;;4951227;28;20892;-74
2023/01/03 04:23:51;;;;;;;2.07;1.10;;;7.80;99.90;;;;;;4952663;29;20979;-74
2023/01/03 04:26:18;;;;;;;1.33;1.17;;;7.40;99.90;;;;;;4952710;29;20479;-74
2023/01/03 04:28:45;;;;;;;1.30;1.20;;;7.70;99.90;;;;;;4952568;29;20802;-74
2023/01/03 04:31:13;;;;;;;1.53;1.17;;;7.70;99.90;;;;;;4952383;29;20878;-74
2023/01/03 04:33:40;;;;;;;1.67;1.13;;;7.70;99.90;;;;;;4952452;29;20447;-74
2023/01/03 04:36:08;;;;;;;3.20;1.50;;;7.50;99.90;;;;;;4952400;29;20741;-74
2023/01/03 04:38:39;;;;;;;1.50;1.17;;;7.60;99.90;;;;;;4951468;29;20462;-74
2023/01/03 04:41:08;;;;;;;3.53;1.47;;;7.50;99.90;;;;;;4951958;29;20549;-74
2023/01/03 04:46:20;;;;;;;1.53;1.43;;;7.30;99.90;;;;;;4952248;29;20426;-74
2023/01/03 04:48:47;;;;;;;3.10;1.30;;;7.30;99.90;;;;;;4952160;29;20541;-74
2023/01/03 04:51:15;;;;;;;1.63;1.30;;;7.30;99.90;;;;;;4951700;29;20554;-75
2023/01/03 04:53:42;;;;;;;4.40;1.47;;;7.00;99.90;;;;;;4952253;29;20549;-75
2023/01/03 04:56:10;;;;;;;1.73;1.40;;;7.30;99.90;;;;;;4951227;29;20885;-74
2023/01/03 04:58:38;;;;;;;1.70;1.60;;;7.30;99.90;;;;;;4956642;29;20877;-74
2023/01/03 05:01:07;;;;;;;1.43;1.33;;;7.30;99.90;;;;;;4959544;28;20566;-74
2023/01/03 05:03:34;;;;;;;1.60;1.50;;;7.30;99.90;;;;;;4959209;29;20538;-74
2023/01/03 05:06:02;;;;;;;1.60;1.30;;;6.90;99.90;;;;;;4958466;29;20471;-74
2023/01/03 05:08:29;;;;;;;1.83;1.40;;;7.30;99.90;;;;;;4953345;29;20440;-74
2023/01/03 05:10:57;;;;;;;1.80;1.40;;;7.40;99.90;;;;;;4951795;29;20459;-74
2023/01/03 05:13:25;;;;;;;1.40;1.30;;;7.30;99.90;;;;;;4950367;29;20963;-74
2023/01/03 05:15:52;;;;;;;1.67;1.43;;;7.30;99.90;;;;;;4951544;29;20447;-74
2023/01/03 05:18:19;;;;;;;2.83;1.70;;;7.30;99.90;;;;;;4951645;29;20619;-75
2023/01/03 05:26:16;;;;;;;3.27;1.90;;;7.30;99.90;;;;;;4951234;29;20438;-75
2023/01/03 05:28:47;;;;;;;2.27;1.60;;;7.30;99.90;;;;;;4949969;29;20459;-75
2023/01/03 05:31:14;;;;;;;1.87;1.77;;;7.30;99.90;;;;;;4951242;29;20439;-74
2023/01/03 05:33:45;;;;;;;2.57;1.60;;;7.30;99.90;;;;;;4951243;29;20526;-74
2023/01/03 05:36:12;;;;;;;5.40;3.10;;;7.30;99.90;;;;;;4951565;29;20455;-74
2023/01/03 05:38:39;;;;;;;2.67;1.80;;;7.40;99.90;;;;;;4951743;29;20459;-74
2023/01/03 05:41:06;;;;;;;2.50;1.47;;;7.40;99.90;;;;;;4951506;29;20483;-74
2023/01/03 05:43:42;;;;;;;1.80;1.43;;;7.40;99.90;;;;;;4952152;29;20506;-74
2023/01/03 05:46:11;;;;;;;2.10;1.93;;;7.40;99.90;;;;;;4949886;29;20458;-74
2023/01/03 05:48:38;;;;;;;1.87;1.63;;;7.40;99.90;;;;;;4950837;29;20490;-74
2023/01/03 05:51:05;;;;;;;1.70;1.60;;;7.20;99.90;;;;;;4950656;29;20963;-76
2023/01/03 05:56:12;;;;;;;2.20;1.50;;;7.40;99.90;;;;;;4950981;29;20462;-74
2023/01/03 05:58:39;;;;;;;1.77;1.60;;;7.40;99.90;;;;;;4951104;29;20531;-74
2023/01/03 06:01:09;;;;;;;1.50;1.40;;;7.40;99.90;;;;;;4950029;28;20502;-78
2023/01/03 06:03:38;;;;;;;2.20;1.30;;;7.20;99.90;;;;;;4949937;29;20467;-75
2023/01/03 06:06:08;;;;;;;2.13;1.57;;;7.40;99.90;;;;;;4950994;29;20439;-75
2023/01/03 06:08:35;;;;;;;1.60;1.50;;;7.40;99.90;;;;;;4950847;29;20439;-74
2023/01/03 06:11:05;;;;;;;1.93;1.50;;;7.40;99.90;;;;;;4950617;29;20587;-78
2023/01/03 06:13:38;;;;;;;2.87;1.90;;;7.60;99.90;;;;;;4951018;29;20546;-76
2023/01/03 06:18:53;;;;;;;1.73;1.63;;;7.70;99.90;;;;;;4950986;29;20573;-75
2023/01/03 06:21:21;;;;;;;1.60;1.37;;;7.70;99.90;;;;;;4949817;29;20495;-75
2023/01/03 06:23:49;;;;;;;1.40;1.30;;;7.90;99.90;;;;;;4933571;29;20450;-76
2023/01/03 06:26:21;;;;;;;2.00;1.40;;;7.90;99.90;;;;;;4951030;29;20451;-76
2023/01/03 06:28:48;;;;;;;2.80;1.50;;;7.90;99.90;;;;;;4948990;29;20454;-76
2023/01/03 06:31:15;;;;;;;2.30;1.50;;;7.60;99.90;;;;;;4939089;29;20447;-76
2023/01/03 06:33:42;;;;;;;1.63;1.53;;;7.60;99.90;;;;;;4941441;29;21071;-76
2023/01/03 06:36:20;;;;;;;1.60;1.50;;;7.60;99.90;;;;;;4931538;29;20472;-76
2023/01/03 06:38:47;;;;;;;1.60;1.50;;;7.50;99.90;;;;;;4938295;29;20443;-75
2023/01/03 06:41:19;;;;;;;2.07;1.57;;;7.40;99.90;;;;;;4941515;29;20523;-75
2023/01/03 06:43:46;;;;;;;1.93;1.80;;;7.50;99.90;;;;;;4938754;29;20949;-75
2023/01/03 06:54:33;;;;;;;2.60;2.00;;;7.70;99.90;;;;;;4939573;29;20785;-75
2023/01/03 06:57:00;;;;;;;2.43;1.83;;;7.10;99.90;;;;;;4934520;29;20432;-76
2023/01/03 06:59:28;;;;;;;2.93;2.37;;;7.60;99.90;;;;;;4937577;29;20538;-75
2023/01/03 07:01:56;;;;;;;2.30;2.10;;;7.50;99.90;;;;;;4935627;29;20539;-76
2023/01/03 07:04:24;;;;;;;2.37;2.17;;;7.50;99.90;;;;;;4938684;29;20464;-76
2023/01/03 07:06:53;;;;;;;2.40;2.20;;;7.50;99.90;;;;;;4934932;29;20605;-75
2023/01/03 07:09:21;;;;;;;2.50;2.07;;;7.70;99.90;;;;;;4939771;29;20467;-77
2023/01/03 07:11:48;;;;;;;2.33;2.13;;;7.60;99.90;;;;;;4938931;29;20521;-76
2023/01/03 07:14:14;;;;;;;2.93;2.27;;;8.00;99.90;;;;;;4945119;28;20551;-75
2023/01/03 07:16:43;;;;;;;2.10;1.90;;;7.60;99.90;;;;;;4942091;29;20442;-75
2023/01/03 07:19:14;;;;;;;6.40;2.60;;;7.60;99.90;;;;;;4946364;29;20482;-79
2023/01/03 07:21:42;;;;;;;2.80;2.10;;;7.90;99.90;;;;;;4944504;29;21002;-78
2023/01/03 07:24:13;;;;;;;3.57;2.47;;;7.70;99.90;;;;;;4942629;29;20443;-77
2023/01/03 07:26:41;;;;;;;2.23;2.03;;;7.30;99.90;;;;;;4957297;29;20831;-76
2023/01/03 07:29:09;;;;;;;2.37;2.17;;;7.70;99.90;;;;;;4953322;29;20767;-77
2023/01/03 07:31:41;;;;;;;2.07;1.70;;;7.70;99.90;;;;;;4953589;29;20465;-75
2023/01/03 07:34:08;;;;;;;2.87;2.63;;;7.70;99.90;;;;;;4953902;29;20862;-76
2023/01/03 07:36:38;;;;;;;3.27;1.90;;;7.80;99.90;;;;;;4957854;29;20541;-79
2023/01/03 07:39:05;;;;;;;5.10;2.57;;;7.70;99.90;;;;;;4961075;29;20438;-77
2023/01/03 07:47:17;;;;;;;3.70;2.57;;;7.70;99.90;;;;;;4958954;28;20458;-79
2023/01/03 07:49:45;;;;;;;4.17;3.70;;;7.70;99.90;;;;;;4961557;29;20454;-79
2023/01/03 07:52:12;;;;;;;3.03;2.70;;;7.70;99.90;;;;;;4960240;29;20823;-79
2023/01/03 07:54:39;;;;;;;2.50;2.30;;;7.70;99.90;;;;;;4956683;29;20668;-79
2023/01/03 07:57:09;;;;;;;3.40;2.43;;;7.90;99.90;;;;;;4958972;29;20797;-79
2023/01/03 07:59:36;;;;;;;3.10;2.90;;;7.80;99.90;;;;;;4955570;28;20482;-78
2023/01/03 08:02:03;;;;;;;6.53;3.60;;;7.50;99.90;;;;;;4954266;29;20509;-79
2023/01/03 08:04:32;;;;;;;3.33;3.03;;;7.00;99.90;;;;;;4953743;29;20540;-79
2023/01/03 08:27:43;;;;;;;2.47;2.27;;;7.70;99.90;;;;;;1028380;26;20806;-74
2023/01/03 08:30:11;;;;;;;5.33;3.50;;;7.50;99.90;;;;;;4971725;28;20450;-73
2023/01/03 08:32:38;;;;;;;3.53;2.80;;;7.60;99.90;;;;;;4971540;28;20970;-75
2023/01/03 08:35:05;;;;;;;4.53;2.80;;;7.60;99.90;;;;;;4972091;28;20486;-75
2023/01/03 08:37:32;;;;;;;4.93;3.70;;;7.60;99.90;;;;;;4970292;28;20461;-75
2023/01/03 08:40:08;;;;;;;3.60;3.30;;;7.60;99.90;;;;;;4971671;28;21101;-75
2023/01/03 08:42:35;;;;;;;2.70;2.30;;;7.60;99.90;;;;;;4959860;28;20573;-73
2023/01/03 08:45:08;;;;;;;4.27;3.10;;;7.60;99.90;;;;;;4951419;29;20800;-75
2023/01/03 08:47:35;;;;;;;3.53;3.23;;;7.70;99.90;;;;;;4952577;29;20483;-75
2023/01/03 08:50:08;;;;;;;4.17;2.80;;;7.60;99.90;;;;;;4952171;29;20466;-74
2023/01/03 08:52:35;;;;;;;3.23;2.77;;;7.10;99.90;;;;;;4963066;28;20474;-75
2023/01/03 08:55:02;;;;;;;3.50;3.20;;;7.40;99.90;;;;;;4970496;28;20477;-74
2023/01/03 08:57:29;;;;;;;6.13;3.63;;;7.40;99.90;;;;;;4970945;28;20470;-75
2023/01/03 08:59:56;;;;;;;3.33;3.03;;;7.20;99.90;;;;;;4970838;28;20537;-75
2023/01/03 09:02:28;;;;;;;3.17;2.90;;;7.40;99.90;;;;;;4970613;28;21073;-74
2023/01/03 09:04:55;;;;;;;3.50;3.07;;;7.30;99.90;;;;;;4970804;28;20461;-75
2023/01/03 09:07:22;;;;;;;2.83;2.53;;;7.40;99.90;;;;;;4971176;28;20532;-75
2023/01/03 09:09:49;;;;;;;2.97;2.67;;;7.40;99.90;;;;;;4958759;28;20895;-75
2023/01/03 09:12:16;;;;;;;3.40;2.77;;;7.60;99.90;;;;;;4951667;29;20461;-75
2023/01/03 09:14:43;;;;;;;4.23;2.93;;;7.70;99.90;;;;;;4951450;29;21002;-75
2023/01/03 09:17:10;;;;;;;4.23;3.50;;;7.70;99.90;;;;;;4951568;29;20491;-75
2023/01/03 09:19:38;;;;;;;2.63;2.43;;;7.70;99.90;;;;;;4951788;29;20488;-75
2023/01/03 09:22:05;;;;;;;3.73;3.37;;;7.20;99.90;;;;;;4952068;29;20522;-75
2023/01/03 09:24:32;;;;;;;6.30;3.90;;;7.30;99.90;;;;;;4952205;29;20469;-76
2023/01/03 09:27:00;;;;;;;3.60;2.77;;;7.40;99.90;;;;;;4956944;29;20439;-76
2023/01/03 09:29:27;;;;;;;3.13;2.60;;;7.80;99.90;;;;;;4956166;28;20475;-76
2023/01/03 09:31:54;;;;;;;3.87;3.27;;;7.60;99.90;;;;;;4954826;29;20483;-75
2023/01/03 09:34:21;;;;;;;3.93;3.10;;;7.70;99.90;;;;;;4951613;29;20474;-75
2023/01/03 09:36:49;;;;;;;6.43;2.90;;;7.40;99.90;;;;;;4950384;28;20459;-75
2023/01/03 09:39:19;;;;;;;3.60;3.30;;;7.20;99.90;;;;;;4950185;29;20495;-76
2023/01/03 09:43:11;;;;;;;5.20;3.60;;;6.90;99.90;;;;;;4950786;29;20526;-76
2023/01/03 09:44:34;;;;;;;5.30;4.37;;;7.00;99.90;;;;;;4951824;29;20947;-76
2023/01/03 09:47:02;;;;;;;7.03;3.83;;;6.90;99.90;;;;;;4951380;29;20941;-77
2023/01/03 09:49:29;;;;;;;4.07;3.30;;;6.80;99.90;;;;;;4950876;29;20619;-75
2023/01/03 10:09:13;;;;;;;3.93;3.40;;;7.60;99.90;;;;;;4950057;28;20475;-75
2023/01/03 10:11:48;;;;;;;5.33;3.87;;;7.20;99.90;;;;;;4950751;29;20795;-75
2023/01/03 10:14:29;;;;;;;4.37;3.17;;;7.10;99.90;;;;;;4948806;29;20505;-75
2023/01/03 10:17:03;;;;;;;7.90;3.40;;;7.10;99.90;;;;;;4950688;29;20454;-75
2023/01/03 10:19:50;;;;;;;6.00;3.77;;;7.20;99.90;;;;;;4933569;29;20478;-75
2023/01/03 10:22:19;;;;;;;8.90;3.30;;;7.20;99.90;;;;;;4949348;29;20506;-75
2023/01/03 10:24:54;;;;;;;3.87;3.47;;;7.20;99.90;;;;;;4931145;29;21043;-75
2023/01/03 10:27:23;;;;;;;4.37;2.90;;;7.30;99.90;;;;;;4931347;29;20589;-75
2023/01/03 10:29:53;;;;;;;6.30;3.20;;;7.30;99.90;;;;;;4937498;29;20493;-75
2023/01/03 10:32:48;;;;;;;3.77;3.47;;;7.50;99.90;;;;;;4950164;29;20443;-75
2023/01/03 10:35:18;;;;;;;4.83;3.40;;;7.60;99.90;;;;;;4950214;29;20814;-75
2023/01/03 10:37:46;;;;;;;3.60;2.87;;;7.50;99.90;;;;;;4950222;29;20517;-75
2023/01/03 10:40:16;;;;;;;3.53;3.23;;;7.40;99.90;;;;;;4950516;29;20546;-76
2023/01/03 10:42:45;;;;;;;3.40;3.10;;;7.70;99.90;;;;;;4950948;29;20534;-76
2023/01/03 10:45:15;;;;;;;3.43;3.10;;;7.70;99.90;;;;;;4957049;29;20956;-76
2023/01/03 10:47:42;;;;;;;3.83;3.43;;;7.80;99.90;;;;;;4952118;28;21388;-76
2023/01/03 10:50:20;;;;;;;3.83;2.90;;;7.90;99.90;;;;;;4960755;29;20462;-78
2023/01/03 10:52:51;;;;;;;3.40;3.07;;;8.00;99.90;;;;;;4953754;29;20517;-75
2023/01/03 10:55:22;;;;;;;4.40;3.47;;;8.10;99.90;;;;;;4953723;29;20466;-75
2023/01/03 10:58:13;;;;;;;5.23;4.17;;;7.60;99.90;;;;;;4951270;29;20455;-76
2023/01/03 11:00:41;;;;;;;5.33;3.70;;;7.50;99.90;;;;;;4951715;29;20490;-75
2023/01/03 11:03:15;;;;;;;4.90;3.60;;;7.70;99.90;;;;;;4949169;29;20907;-75
2023/01/03 11:05:43;;;;;;;5.60;3.73;;;7.90;99.90;;;;;;4953757;29;20493;-75
2023/01/03 11:08:20;;;;;;;4.23;3.63;;;7.90;99.90;;;;;;4954735;29;20435;-76
2023/01/03 11:11:21;;;;;;;4.40;4.00;;;7.60;99.90;;;;;;4956495;29;20458;-75
2023/01/03 11:13:49;;;;;;;4.13;3.40;;;7.60;99.90;;;;;;4957068;29;20550;-76
2023/01/03 11:16:19;;;;;;;6.00;4.60;;;7.40;99.90;;;;;;4959537;29;20447;-76
2023/01/03 11:19:00;;;;;;;3.97;3.40;;;7.30;99.90;;;;;;4957197;29;20488;-76
2023/01/03 11:21:35;;;;;;;9.60;4.00;;;7.30;99.90;;;;;;4954215;29;20937;-75
2023/01/03 11:24:15;;;;;;;5.47;4.93;;;7.50;99.90;;;;;;4952510;29;20451;-75
2023/01/03 11:26:50;;;;;;;5.00;3.90;;;7.50;99.90;;;;;;4952293;29;20462;-75
2023/01/03 11:29:51;;;;;;;5.10;4.13;;;7.20;99.90;;;;;;4952601;28;20536;-81
2023/01/03 11:32:36;;;;;;;4.10;3.70;;;7.10;99.90;;;;;;4952511;29;20879;-77
2023/01/03 11:35:39;;;;;;;5.37;4.30;;;7.00;99.90;;;;;;4951339;29;20534;-76
2023/01/03 11:38:19;;;;;;;5.53;4.60;;;7.10;99.90;;;;;;4933915;29;20517;-76
2023/01/03 11:40:57;;;;;;;5.33;4.33;;;7.10;99.90;;;;;;4952800;29;20864;-77
2023/01/03 11:43:44;;;;;;;6.20;3.97;;;7.20;99.90;;;;;;4952377;29;20818;-75
2023/01/03 11:46:25;;;;;;;6.63;3.20;;;7.20;99.90;;;;;;4949469;29;20435;-75
2023/01/03 11:49:04;;;;;;;5.30;3.53;;;7.40;99.90;;;;;;4949889;29;20447;-75
2023/01/03 11:51:36;;;;;;;5.60;3.50;;;7.80;99.90;;;;;;4950196;29;20505;-75
2023/01/03 11:54:08;;;;;;;3.53;3.17;;;7.90;99.90;;;;;;4950390;29;20470;-75
2023/01/03 11:56:43;;;;;;;4.50;2.97;;;7.80;99.90;;;;;;4951707;29;20439;-75
2023/01/03 11:59:36;;;;;;;2.90;2.70;;;7.80;99.90;;;;;;4948210;28;21003;-75
2023/01/03 12:02:50;;;;;;;2.93;2.07;;;8.10;99.90;;;;;;4951035;29;20578;-75
2023/01/03 12:05:40;;;;;;;6.17;2.97;;;8.40;99.90;;;;;;4949776;29;20451;-75
2023/01/03 12:08:33;;;;;;;2.87;2.60;;;8.20;99.90;;;;;;4951225;29;20463;-75
2023/01/03 12:11:05;;;;;;;5.47;3.10;;;8.40;99.90;;;;;;4948990;29;20467;-75
2023/01/03 12:13:40;;;;;;;3.77;3.13;;;8.30;99.90;;;;;;4946580;29;20869;-75
2023/01/03 12:16:12;;;;;;;3.13;2.80;;;8.00;99.90;;;;;;4948709;29;20438;-75
2023/01/03 12:18:59;;;;;;;3.40;3.10;;;7.80;99.90;;;;;;4950945;29;20479;-75
2023/01/03 12:21:34;;;;;;;3.77;3.47;;;7.50;99.90;;;;;;4948978;29;20952;-75
2023/01/03 12:24:07;;;;;;;4.73;3.17;;;7.50;99.90;;;;;;4953813;29;20442;-75
2023/01/03 12:26:38;;;;;;;3.00;2.77;;;7.90;99.90;;;;;;4951995;29;20909;-75
2023/01/03 12:29:10;;;;;;;3.20;2.67;;;8.00;99.90;;;;;;4949912;29;20538;-75
2023/01/03 12:31:45;;;;;;;2.37;2.17;;;7.70;99.90;;;;;;4951183;29;20490;-76
2023/01/03 12:34:23;;;;;;;3.03;2.60;;;7.80;99.90;;;;;;4951335;29;21168;-75
2023/01/03 12:36:58;;;;;;;3.17;2.80;;;7.80;99.90;;;;;;4949219;29;20954;-75
2023/01/03 12:39:40;;;;;;;5.00;3.03;;;8.00;99.90;;;;;;4948324;29;20502;-75
2023/01/03 12:42:17;;;;;;;3.77;3.37;;;7.90;99.90;;;;;;4948690;29;20479;-75
2023/01/03 12:44:51;;;;;;;3.93;2.70;;;7.70;99.90;;;;;;4946953;29;20458;-75
2023/01/03 12:47:28;;;;;;;4.33;2.60;;;7.60;99.90;;;;;;4950499;29;20514;-75
2023/01/03 12:50:02;;;;;;;3.10;2.90;;;7.50;99.90;;;;;;4951233;29;20522;-77
2023/01/03 12:55:21;;;;;;;2.90;2.50;;;7.50;99.90;;;;;;4951048;29;20454;-74
2023/01/03 12:58:11;;;;;;;4.00;1.90;;;7.40;99.90;;;;;;4950361;29;20455;-75
2023/01/03 13:00:58;;;;;;;2.70;2.40;;;7.40;99.90;;;;;;4951169;29;20447;-74
2023/01/03 13:03:32;;;;;;;2.40;2.20;;;7.50;99.90;;;;;;4950231;29;20806;-74
2023/01/03 13:06:04;;;;;;;2.60;2.40;;;7.60;99.90;;;;;;4953725;29;20435;-75
2023/01/03 13:08:35;;;;;;;2.63;2.33;;;7.60;99.90;;;;;;4953531;28;20455;-75
2023/01/03 13:11:07;;;;;;;2.60;2.23;;;7.80;99.90;;;;;;4948990;28;20502;-73
2023/01/03 13:13:35;;;;;;;4.60;2.30;;;7.80;99.90;;;;;;4950703;29;20928;-75
2023/01/03 13:16:44;;;;;;;2.53;2.33;;;7.60;99.90;;;;;;4951127;29;20514;-73
2023/01/03 13:19:48;;;;;;;2.37;2.17;;;7.80;99.90;;;;;;4903736;29;20493;-72
2023/01/03 13:22:46;;;;;;;3.23;2.10;;;7.70;99.90;;;;;;4949264;29;20521;-73
2023/01/03 13:25:38;;;;;;;2.50;2.30;;;7.50;99.90;;;;;;4950644;29;20452;-73
2023/01/03 13:28:19;;;;;;;5.57;3.23;;;7.50;99.90;;;;;;4947475;28;20561;-72
2023/01/03 13:30:50;;;;;;;3.60;2.80;;;7.50;99.90;;;;;;4947916;29;20552;-73
2023/01/03 13:33:30;;;;;;;2.50;2.30;;;7.60;99.90;;;;;;4950148;29;20447;-72
2023/01/03 13:36:01;;;;;;;3.20;2.90;;;7.60;99.90;;;;;;4949974;29;20443;-72
2023/01/03 13:38:35;;;;;;;3.03;2.73;;;7.50;99.90;;;;;;4948108;29;20467;-72
2023/01/03 13:41:08;;;;;;;4.90;2.50;;;7.50;99.90;;;;;;4949667;29;20522;-72
2023/01/03 13:43:36;;;;;;;3.50;2.70;;;7.60;99.90;;;;;;4949646;29;20570;-72
2023/01/03 13:46:18;;;;;;;2.10;1.90;;;7.50;99.90;;;;;;4947248;29;20439;-72
2023/01/03 13:49:06;;;;;;;2.77;2.00;;;7.70;99.90;;;;;;4947714;29;20438;-72
2023/01/03 13:51:47;;;;;;;2.90;1.83;;;7.70;99.90;;;;;;4948124;29;20466;-73
2023/01/03 13:54:54;;;;;;;2.70;1.87;;;8.10;99.90;;;;;;4948437;29;20534;-72
2023/01/03 13:57:38;;;;;;;2.80;2.40;;;8.00;99.90;;;;;;4949288;29;20439;-72
2023/01/03 14:00:17;;;;;;;3.50;2.03;;;7.70;99.90;;;;;;4946434;29;20454;-72
2023/01/03 14:03:18;;;;;;;2.50;2.30;;;7.80;99.90;;;;;;4946622;29;20486;-72
2023/01/03 14:06:10;;;;;;;2.30;1.90;;;7.70;99.90;;;;;;4946778;29;20518;-72
2023/01/03 14:09:20;;;;;;;3.80;2.50;;;7.60;99.90;;;;;;4931256;28;20523;-72
2023/01/03 14:12:26;;;;;;;1.87;1.67;;;7.70;99.90;;;;;;4947198;29;20484;-72
2023/01/03 14:14:55;;;;;;;1.80;1.70;;;7.70;99.90;;;;;;4947650;29;20431;-73
2023/01/03 14:17:28;;;;;;;1.80;1.60;;;7.50;99.90;;;;;;4949271;29;20447;-72
2023/01/03 14:19:57;;;;;;;2.77;2.13;;;7.70;99.90;;;;;;4948970;29;20435;-78
2023/01/03 14:22:34;;;;;;;4.80;1.57;;;7.70;99.90;;;;;;4947806;28;20483;-76
2023/01/03 14:25:02;;;;;;;2.50;1.80;;;7.60;99.90;;;;;;4947525;29;20471;-72
2023/01/03 14:27:36;;;;;;;3.37;2.07;;;7.50;99.90;;;;;;4948599;29;20435;-72
2023/01/03 14:30:04;;;;;;;1.60;1.50;;;7.50;99.90;;;;;;4946389;29;20447;-72
2023/01/03 14:32:40;;;;;;;2.00;1.60;;;7.50;99.90;;;;;;4948797;29;20457;-72
2023/01/03 14:35:22;;;;;;;2.97;2.00;;;7.60;99.90;;;;;;4946367;29;20450;-72
2023/01/03 14:37:49;;;;;;;1.90;1.80;;;7.50;99.90;;;;;;4946040;29;20447;-71
2023/01/03 14:40:19;;;;;;;1.70;1.60;;;7.60;99.90;;;;;;4948454;29;20479;-71
2023/01/03 14:42:47;;;;;;;2.13;1.30;;;7.50;99.90;;;;;;4947501;29;20485;-75
2023/01/03 14:45:20;;;;;;;2.83;2.43;;;7.40;99.90;;;;;;4948779;29;20506;-75
2023/01/03 14:47:47;;;;;;;1.47;1.37;;;7.40;99.90;;;;;;4929292;29;20474;-74
2023/01/03 18:26:33;;;;;;;13.73;9.43;;;6.10;99.90;;;;;;511688;26;20807;-80
2023/01/03 18:29:00;;;;;;;17.43;10.70;;;6.40;99.90;;;;;;4961151;28;20490;-80
2023/01/03 18:31:27;;;;;;;12.40;9.50;;;6.10;99.90;;;;;;4970664;28;20879;-80
2023/01/03 18:33:56;;;;;;;11.73;9.37;;;6.50;99.90;;;;;;4968146;28;20438;-79
2023/01/03 18:36:27;;;;;;;14.10;8.73;;;6.10;99.90;;;;;;4970841;28;20997;-80
2023/01/03 18:39:03;;;;;;;10.70;8.97;;;6.20;99.90;;;;;;4969107;28;20469;-79
2023/01/03 18:41:33;;;;;;;10.43;8.03;;;6.30;99.90;;;;;;4967921;28;20775;-80
2023/01/03 18:44:00;;;;;;;9.80;7.30;;;6.50;99.90;;;;;;4970059;28;20548;-79
2023/01/03 18:46:28;;;;;;;10.40;7.93;;;6.80;99.90;;;;;;4969736;28;20450;-80
2023/01/03 18:48:55;;;;;;;11.60;7.80;;;6.50;99.90;;;;;;4969324;28;20923;-79
2023/01/03 18:51:27;;;;;;;10.53;7.83;;;6.50;99.90;;;;;;4971077;28;20446;-81
2023/01/03 18:56:35;;;;;;;8.37;6.93;;;6.40;99.90;;;;;;4915727;29;20481;-77
2023/01/03 18:59:05;;;;;;;9.30;8.13;;;6.50;99.90;;;;;;4920738;29;20453;-79
2023/01/03 19:01:41;;;;;;;9.40;6.77;;;6.70;99.90;;;;;;4921461;29;20465;-79
2023/01/03 19:04:08;;;;;;;9.07;7.43;;;6.60;99.90;;;;;;4914594;29;20512;-79
2023/01/03 19:06:41;;;;;;;9.10;7.07;;;6.40;99.90;;;;;;4916345;29;20469;-79
2023/01/03 19:09:16;;;;;;;9.60;7.30;;;6.50;99.90;;;;;;4926739;29;20519;-81
2023/01/03 19:11:45;;;;;;;9.90;7.60;;;6.40;99.90;;;;;;4912449;29;20441;-79
2023/01/03 19:14:16;;;;;;;11.00;8.10;;;6.50;99.90;;;;;;4916317;29;20414;-80
2023/01/03 19:16:44;;;;;;;9.30;7.63;;;6.60;99.90;;;;;;4921778;29;20455;-79
2023/01/03 19:19:19;;;;;;;9.80;8.23;;;6.60;99.90;;;;;;4929170;29;20655;-80
2023/01/03 19:21:48;;;;;;;12.80;9.10;;;6.70;99.90;;;;;;4914081;29;20463;-81
2023/01/03 19:24:23;;;;;;;13.47;8.67;;;6.40;99.90;;;;;;4920735;29;20506;-80
2023/01/03 19:27:08;;;;;;;13.73;8.97;;;7.00;99.90;;;;;;4920413;29;20453;-80
2023/01/03 19:29:39;;;;;;;13.57;9.67;;;6.30;99.90;;;;;;4915430;29;20952;-81
2023/01/03 19:32:27;;;;;;;12.17;9.13;;;6.40;99.90;;;;;;4929881;29;20453;-79
2023/01/03 19:35:06;;;;;;;15.33;8.80;;;6.50;99.90;;;;;;4937599;29;20467;-81